Time;durP1;ratioP1;P1;durP2;ratioP2;P2;SDS_P1;SDS_P2;PMS_P1;PMS_P2;Temp;Humidity;BMP_temperature;BMP_pressure;BME280_temperature;BME280_humidity;BME280_pressure;Samples;Min_cycle;Max_cycle;Signal;HPM_P1;HPM_P2
2021/07/29 06:55:24;;;;;;;12.82;6.60;;;;;;;;;;5027281;23;20522;-69
2021/07/29 06:57:50;;;;;;;10.98;6.25;;;;;;;;;;4993419;28;20436;-73
2021/07/29 07:00:16;;;;;;;14.88;6.93;;;;;;;;;;4976443;28;20030;-74
2021/07/29 07:02:42;;;;;;;16.92;6.82;;;;;;;;;;4993684;28;20101;-73
2021/07/29 07:05:11;;;;;;;14.10;6.30;;;;;;;;;;4993659;28;20030;-76
2021/07/29 07:07:37;;;;;;;12.65;6.28;;;;;;;;;;4976062;28;20377;-72
2021/07/29 07:10:04;;;;;;;9.93;6.47;;;;;;;;;;4993599;28;20026;-69
2021/07/29 07:12:30;;;;;;;10.50;6.10;;;;;;;;;;4993681;28;20029;-70
2021/07/29 07:14:56;;;;;;;11.23;6.63;;;;;;;;;;4993860;28;20492;-69
2021/07/29 07:17:22;;;;;;;9.98;6.15;;;;;;;;;;4994192;28;20022;-84
2021/07/29 07:19:48;;;;;;;14.18;6.50;;;;;;;;;;4976478;28;20030;-84
2021/07/29 07:22:14;;;;;;;12.60;6.10;;;;;;;;;;4994045;28;20022;-80
2021/07/29 07:24:40;;;;;;;17.95;6.60;;;;;;;;;;4979789;28;20560;-81
2021/07/29 07:27:06;;;;;;;11.73;6.15;;;;;;;;;;4997546;28;20480;-71
2021/07/29 07:29:36;;;;;;;20.83;7.60;;;;;;;;;;4997214;28;20026;-70
2021/07/29 07:32:02;;;;;;;16.23;6.85;;;;;;;;;;4997198;28;20097;-71
2021/07/29 07:34:28;;;;;;;9.00;6.28;;;;;;;;;;4997168;28;20077;-70
2021/07/29 07:36:55;;;;;;;10.48;6.55;;;;;;;;;;4979570;28;20122;-70
2021/07/29 07:39:21;;;;;;;10.25;6.50;;;;;;;;;;4997389;28;20027;-76
2021/07/29 07:41:47;;;;;;;12.05;6.45;;;;;;;;;;4979433;28;20030;-79
2021/07/29 07:44:13;;;;;;;13.82;5.97;;;;;;;;;;4997208;28;20377;-80
2021/07/29 07:46:39;;;;;;;13.65;6.78;;;;;;;;;;4979614;28;20548;-70
2021/07/29 07:49:05;;;;;;;10.65;6.07;;;;;;;;;;4997263;28;20034;-70
2021/07/29 07:51:31;;;;;;;17.83;6.93;;;;;;;;;;4997076;28;20453;-71
2021/07/29 07:53:57;;;;;;;10.82;6.13;;;;;;;;;;4996943;28;20129;-85
2021/07/29 07:56:23;;;;;;;11.77;6.00;;;;;;;;;;4979469;28;20045;-69
2021/07/29 07:58:50;;;;;;;14.35;6.40;;;;;;;;;;4996896;28;20037;-72
2021/07/29 08:01:16;;;;;;;11.07;6.50;;;;;;;;;;4996941;28;20031;-67
2021/07/29 08:03:42;;;;;;;8.48;5.82;;;;;;;;;;4996423;28;20023;-73
2021/07/29 08:06:08;;;;;;;9.50;5.97;;;;;;;;;;4996787;28;20030;-68
2021/07/29 08:08:34;;;;;;;8.95;6.00;;;;;;;;;;4996720;28;20117;-68
2021/07/29 08:11:02;;;;;;;11.20;6.30;;;;;;;;;;4996740;28;20036;-70
2021/07/29 08:13:28;;;;;;;10.18;6.00;;;;;;;;;;4996642;28;20026;-74
2021/07/29 08:15:55;;;;;;;12.52;6.15;;;;;;;;;;4996370;28;20030;-72
2021/07/29 08:18:21;;;;;;;16.02;5.65;;;;;;;;;;4996530;28;20076;-71
2021/07/29 08:20:47;;;;;;;10.20;5.80;;;;;;;;;;4996793;28;20049;-71
2021/07/29 08:23:13;;;;;;;13.20;6.13;;;;;;;;;;4996064;28;20056;-73
2021/07/29 08:25:39;;;;;;;9.77;5.85;;;;;;;;;;4996447;28;20046;-72
2021/07/29 08:28:05;;;;;;;11.85;6.18;;;;;;;;;;4996175;28;20480;-72
2021/07/29 08:30:31;;;;;;;11.05;5.70;;;;;;;;;;4996119;28;20161;-71
2021/07/29 08:32:57;;;;;;;10.85;6.03;;;;;;;;;;4996276;28;20025;-69
2021/07/29 08:35:24;;;;;;;14.57;7.00;;;;;;;;;;4995674;28;20089;-71
2021/07/29 08:37:50;;;;;;;11.68;6.05;;;;;;;;;;4996263;28;20121;-70
2021/07/29 08:40:19;;;;;;;10.65;5.90;;;;;;;;;;4995808;28;20037;-69
2021/07/29 08:42:46;;;;;;;18.35;6.78;;;;;;;;;;4995808;28;20026;-70
2021/07/29 08:45:12;;;;;;;13.75;6.13;;;;;;;;;;4996113;28;20041;-80
2021/07/29 08:47:40;;;;;;;9.15;5.55;;;;;;;;;;4996352;28;20034;-83
2021/07/29 08:50:07;;;;;;;9.77;5.93;;;;;;;;;;4978495;28;20631;-72
2021/07/29 08:52:33;;;;;;;10.50;6.15;;;;;;;;;;4995947;28;20380;-78
2021/07/29 08:55:00;;;;;;;10.43;6.35;;;;;;;;;;4978068;28;20042;-83
2021/07/29 08:57:27;;;;;;;14.73;6.35;;;;;;;;;;4978645;28;20045;-72
2021/07/29 08:59:53;;;;;;;13.90;6.10;;;;;;;;;;4995413;28;20027;-70
2021/07/29 09:02:25;;;;;;;14.23;6.65;;;;;;;;;;4995656;28;20042;-70
2021/07/29 09:05:06;;;;;;;12.38;6.28;;;;;;;;;;4995698;28;20034;-70
2021/07/29 09:07:33;;;;;;;7.88;5.93;;;;;;;;;;4995319;28;20022;-69
2021/07/29 09:09:59;;;;;;;14.38;6.25;;;;;;;;;;4995186;28;20365;-70
2021/07/29 09:12:25;;;;;;;11.13;6.15;;;;;;;;;;4995264;28;20102;-70
2021/07/29 09:14:52;;;;;;;11.27;6.32;;;;;;;;;;4995460;28;20030;-75
2021/07/29 09:17:19;;;;;;;8.85;5.60;;;;;;;;;;4995731;28;20028;-82
2021/07/29 09:19:46;;;;;;;9.05;5.50;;;;;;;;;;4977599;28;20041;-79
2021/07/29 09:22:14;;;;;;;12.93;6.28;;;;;;;;;;4978145;28;20037;-90
2021/07/29 09:25:02;;;;;;;12.25;6.03;;;;;;;;;;4977695;28;20448;-78
2021/07/29 09:27:40;;;;;;;11.10;6.40;;;;;;;;;;4995222;28;20034;-67
2021/07/29 09:30:10;;;;;;;10.07;5.93;;;;;;;;;;4995141;28;20026;-68
2021/07/29 09:32:36;;;;;;;9.52;5.95;;;;;;;;;;4995148;28;20030;-74
2021/07/29 09:35:03;;;;;;;8.85;5.97;;;;;;;;;;4995226;28;20547;-81
2021/07/29 09:37:29;;;;;;;10.15;6.10;;;;;;;;;;4994869;28;20080;-74
2021/07/29 09:39:59;;;;;;;14.70;6.57;;;;;;;;;;4977534;28;20026;-83
2021/07/29 09:42:26;;;;;;;11.07;6.00;;;;;;;;;;4977437;28;20022;-76
2021/07/29 09:44:53;;;;;;;16.60;6.43;;;;;;;;;;4994274;28;20034;-74
2021/07/29 09:47:20;;;;;;;8.98;6.00;;;;;;;;;;4994308;28;20101;-76
2021/07/29 09:49:46;;;;;;;8.43;6.25;;;;;;;;;;4994472;28;20022;-76
2021/07/29 09:52:14;;;;;;;9.63;6.22;;;;;;;;;;4979176;28;20113;-92
2021/07/29 09:54:41;;;;;;;10.82;6.25;;;;;;;;;;4977253;28;20046;-84
2021/07/29 09:57:11;;;;;;;7.70;5.60;;;;;;;;;;4977095;28;20158;-68
2021/07/29 09:59:37;;;;;;;8.60;5.90;;;;;;;;;;4994264;28;20026;-67
2021/07/29 10:02:04;;;;;;;15.65;5.88;;;;;;;;;;4994396;28;20030;-69
2021/07/29 10:04:50;;;;;;;14.57;6.30;;;;;;;;;;4994178;28;20034;-68
2021/07/29 10:07:36;;;;;;;12.63;6.00;;;;;;;;;;4994307;28;20480;-67
2021/07/29 10:10:03;;;;;;;9.32;6.32;;;;;;;;;;4994101;28;20113;-69
2021/07/29 10:12:30;;;;;;;8.93;6.30;;;;;;;;;;4994176;28;20018;-67
2021/07/29 10:14:57;;;;;;;11.20;5.32;;;;;;;;;;4994387;28;20358;-68
2021/07/29 10:17:36;;;;;;;11.18;6.22;;;;;;;;;;4994044;28;20034;-67
2021/07/29 10:20:15;;;;;;;11.13;5.65;;;;;;;;;;4994027;28;20080;-68
2021/07/29 10:22:41;;;;;;;10.93;5.95;;;;;;;;;;4994064;28;20073;-67
2021/07/29 10:25:08;;;;;;;10.00;5.80;;;;;;;;;;4993985;28;20044;-63
2021/07/29 10:27:34;;;;;;;10.32;6.25;;;;;;;;;;4994464;28;20081;-63
2021/07/29 10:30:19;;;;;;;7.72;5.30;;;;;;;;;;4976411;28;20077;-63
2021/07/29 10:32:49;;;;;;;8.65;5.57;;;;;;;;;;4994430;28;20028;-76
2021/07/29 10:35:31;;;;;;;11.32;5.72;;;;;;;;;;4993936;28;20093;-66
2021/07/29 10:38:00;;;;;;;9.95;6.22;;;;;;;;;;4993872;28;20032;-67
2021/07/29 10:40:37;;;;;;;8.57;5.45;;;;;;;;;;4994137;28;20026;-67
2021/07/29 10:46:12;;;;;;;15.48;5.70;;;;;;;;;;5051468;23;20125;-61
2021/07/29 10:51:21;;;;;;;8.57;5.30;;;;;;;;;;4979483;28;20157;-67
2021/07/29 10:53:49;;;;;;;12.25;6.03;;;;;;;;;;4992583;28;20030;-63
2021/07/29 10:56:16;;;;;;;8.55;5.25;;;;;;;;;;4990796;28;20480;-61
2021/07/29 10:58:43;;;;;;;8.18;5.00;;;;;;;;;;4994848;28;20031;-62
2021/07/29 11:01:13;;;;;;;11.65;5.78;;;;;;;;;;4978421;28;20039;-63
2021/07/29 11:03:46;;;;;;;14.07;5.72;;;;;;;;;;4995259;28;20041;-65
2021/07/29 11:06:14;;;;;;;9.48;4.72;;;;;;;;;;4996558;28;20384;-64
2021/07/29 11:08:42;;;;;;;10.65;5.22;;;;;;;;;;4996286;28;20425;-62
2021/07/29 11:11:08;;;;;;;10.85;5.10;;;;;;;;;;4996537;28;20488;-61
2021/07/29 11:13:35;;;;;;;9.32;5.07;;;;;;;;;;4978243;28;20038;-61
2021/07/29 11:16:02;;;;;;;12.48;5.43;;;;;;;;;;4996363;28;20058;-62
2021/07/29 11:18:28;;;;;;;9.15;5.20;;;;;;;;;;4996158;28;20547;-62
2021/07/29 11:20:54;;;;;;;8.98;5.20;;;;;;;;;;4996354;28;20029;-68
2021/07/29 11:23:33;;;;;;;18.27;7.25;;;;;;;;;;4995951;28;20026;-64
2021/07/29 11:26:00;;;;;;;11.82;5.18;;;;;;;;;;4996093;28;20480;-63
2021/07/29 11:28:26;;;;;;;11.20;5.35;;;;;;;;;;4995002;28;20033;-62
2021/07/29 11:30:52;;;;;;;8.88;5.32;;;;;;;;;;4994117;28;20385;-61
2021/07/29 11:33:20;;;;;;;13.30;5.28;;;;;;;;;;4996290;28;20538;-60
2021/07/29 11:35:46;;;;;;;9.30;5.53;;;;;;;;;;4995737;28;20029;-66
2021/07/29 11:38:16;;;;;;;10.52;5.45;;;;;;;;;;4996151;28;20180;-61
2021/07/29 11:40:43;;;;;;;9.00;5.78;;;;;;;;;;4994069;28;20469;-64
2021/07/29 11:43:22;;;;;;;11.10;4.70;;;;;;;;;;4995569;28;20165;-65
2021/07/29 11:45:48;;;;;;;11.65;5.25;;;;;;;;;;4972437;28;20057;-63
2021/07/29 11:48:23;;;;;;;10.10;5.55;;;;;;;;;;4995541;28;20030;-66
2021/07/29 11:50:50;;;;;;;10.23;4.90;;;;;;;;;;4974784;28;20125;-66
2021/07/29 11:53:16;;;;;;;11.50;5.60;;;;;;;;;;4995339;28;20023;-66
2021/07/29 11:55:52;;;;;;;10.27;5.47;;;;;;;;;;4975010;28;20019;-65
2021/07/29 11:58:18;;;;;;;8.10;5.22;;;;;;;;;;4975983;28;20100;-62
2021/07/29 12:00:49;;;;;;;10.50;5.35;;;;;;;;;;4995403;28;20028;-68
2021/07/29 12:03:24;;;;;;;9.25;5.22;;;;;;;;;;4977416;28;20031;-68
2021/07/29 12:05:50;;;;;;;10.90;5.28;;;;;;;;;;4995216;28;20033;-68
2021/07/29 12:08:17;;;;;;;10.27;5.28;;;;;;;;;;4994717;28;20022;-68
2021/07/29 12:10:43;;;;;;;11.13;5.25;;;;;;;;;;4994766;28;20037;-62
2021/07/29 12:13:09;;;;;;;11.80;5.40;;;;;;;;;;4994759;28;20026;-66
2021/07/29 12:15:36;;;;;;;9.45;4.90;;;;;;;;;;4995163;28;20574;-66
2021/07/29 12:18:20;;;;;;;13.73;5.32;;;;;;;;;;4995010;28;20026;-61
2021/07/29 12:20:49;;;;;;;9.48;5.45;;;;;;;;;;4995016;28;20385;-68
2021/07/29 12:23:16;;;;;;;14.30;5.05;;;;;;;;;;4994896;28;20034;-64
2021/07/29 12:25:43;;;;;;;9.02;5.03;;;;;;;;;;4995152;28;20022;-64
2021/07/29 12:28:09;;;;;;;10.15;4.90;;;;;;;;;;4995134;28;20077;-67
2021/07/29 12:30:36;;;;;;;10.18;5.97;;;;;;;;;;4994081;28;20038;-68
2021/07/29 12:33:14;;;;;;;12.88;5.22;;;;;;;;;;4994862;28;20085;-67
2021/07/29 12:36:04;;;;;;;10.15;5.47;;;;;;;;;;4994764;28;20027;-63
2021/07/29 12:38:30;;;;;;;10.85;4.85;;;;;;;;;;4934564;29;20038;-61
2021/07/29 12:40:56;;;;;;;9.23;5.20;;;;;;;;;;4932098;29;20521;-67
2021/07/29 12:43:26;;;;;;;8.60;5.10;;;;;;;;;;4934402;29;20545;-62
2021/07/29 12:45:55;;;;;;;15.07;5.68;;;;;;;;;;4932125;29;20059;-63
2021/07/29 12:48:22;;;;;;;11.07;5.18;;;;;;;;;;4933599;29;20039;-69
2021/07/29 12:50:48;;;;;;;11.32;6.45;;;;;;;;;;4933459;29;20051;-69
2021/07/29 12:53:15;;;;;;;10.20;5.07;;;;;;;;;;4933022;29;20024;-66
2021/07/29 12:55:42;;;;;;;10.50;5.22;;;;;;;;;;4917161;29;20543;-65
2021/07/29 12:58:08;;;;;;;9.98;5.03;;;;;;;;;;4934512;29;20031;-65
2021/07/29 13:01:00;;;;;;;9.98;4.80;;;;;;;;;;4917804;29;20115;-67
2021/07/29 13:03:32;;;;;;;19.60;5.68;;;;;;;;;;4929884;29;20542;-71
2021/07/29 13:05:59;;;;;;;7.55;4.80;;;;;;;;;;4933647;29;20043;-73
2021/07/29 13:08:27;;;;;;;14.00;5.47;;;;;;;;;;4933783;29;20031;-78
2021/07/29 13:10:53;;;;;;;9.82;5.13;;;;;;;;;;4915526;29;20198;-76
2021/07/29 13:13:24;;;;;;;15.90;5.28;;;;;;;;;;4920573;29;20168;-76
2021/07/29 13:15:50;;;;;;;11.07;5.22;;;;;;;;;;4958944;28;20523;-66
2021/07/29 13:18:16;;;;;;;10.63;5.05;;;;;;;;;;4993323;28;20033;-82
2021/07/29 13:20:43;;;;;;;11.20;4.70;;;;;;;;;;4993498;28;20085;-77
2021/07/29 13:23:09;;;;;;;9.20;5.05;;;;;;;;;;4975362;28;20113;-75
2021/07/29 13:25:35;;;;;;;8.70;4.82;;;;;;;;;;4993526;28;20026;-76
2021/07/29 13:28:01;;;;;;;16.05;4.95;;;;;;;;;;4993873;28;20037;-76
2021/07/29 13:30:28;;;;;;;11.82;4.88;;;;;;;;;;4976961;28;20195;-78
2021/07/29 13:32:55;;;;;;;10.82;5.18;;;;;;;;;;4992750;28;20038;-79
2021/07/29 13:35:22;;;;;;;8.90;4.90;;;;;;;;;;4975835;28;20045;-73
2021/07/29 13:37:48;;;;;;;9.43;4.70;;;;;;;;;;4976022;28;20166;-73
2021/07/29 13:40:14;;;;;;;10.25;4.93;;;;;;;;;;4993550;28;20055;-73
2021/07/29 13:42:42;;;;;;;9.15;4.60;;;;;;;;;;4993237;28;20072;-69
2021/07/29 13:45:20;;;;;;;11.07;4.80;;;;;;;;;;4990112;28;20420;-71
2021/07/29 13:48:04;;;;;;;7.57;4.72;;;;;;;;;;4992128;28;20383;-71
2021/07/29 13:50:31;;;;;;;8.77;4.45;;;;;;;;;;4993307;28;20125;-70
2021/07/29 13:53:02;;;;;;;10.93;4.60;;;;;;;;;;4980519;28;20026;-70
2021/07/29 13:55:28;;;;;;;7.97;4.80;;;;;;;;;;4993112;28;20471;-68
2021/07/29 13:57:55;;;;;;;9.07;4.28;;;;;;;;;;4993217;28;20022;-70
2021/07/29 14:00:22;;;;;;;7.50;4.15;;;;;;;;;;4972263;28;20026;-70
2021/07/29 14:02:48;;;;;;;10.35;4.70;;;;;;;;;;4974117;28;20178;-71
2021/07/29 14:05:17;;;;;;;7.38;4.57;;;;;;;;;;4978007;28;20034;-76
2021/07/29 14:07:43;;;;;;;7.60;5.13;;;;;;;;;;4992690;28;20026;-67
2021/07/29 14:10:10;;;;;;;8.65;4.38;;;;;;;;;;4992414;28;20027;-67
2021/07/29 14:12:37;;;;;;;11.25;4.35;;;;;;;;;;4975796;28;20417;-68
2021/07/29 14:15:03;;;;;;;11.43;4.47;;;;;;;;;;4992272;28;20082;-67
2021/07/29 14:18:05;;;;;;;10.10;4.40;;;;;;;;;;4993066;28;20025;-68
2021/07/29 14:20:26;;;;;;;10.87;4.53;;;;;;;;;;4990592;28;20122;-68
2021/07/29 14:23:06;;;;;;;7.85;4.15;;;;;;;;;;4992735;28;20026;-67
2021/07/29 14:25:35;;;;;;;12.43;4.30;;;;;;;;;;4992215;28;20037;-65
2021/07/29 14:28:02;;;;;;;11.68;4.35;;;;;;;;;;4992931;28;20026;-70
2021/07/29 14:30:28;;;;;;;11.95;4.32;;;;;;;;;;4974442;28;20524;-68
2021/07/29 14:32:54;;;;;;;9.48;4.60;;;;;;;;;;4992080;28;20029;-68
2021/07/29 14:35:20;;;;;;;10.90;4.68;;;;;;;;;;4992590;28;20026;-67
2021/07/29 14:37:46;;;;;;;8.48;4.20;;;;;;;;;;4992706;28;20460;-67
2021/07/29 14:40:13;;;;;;;10.07;4.63;;;;;;;;;;4983644;28;20030;-68
2021/07/29 14:42:39;;;;;;;6.70;4.70;;;;;;;;;;4991987;28;20476;-67
2021/07/29 14:50:19;;;;;;;11.32;5.03;;;;;;;;;;4992370;28;20050;-69
2021/07/29 14:52:48;;;;;;;8.55;4.78;;;;;;;;;;4978786;28;20555;-62
2021/07/29 14:55:21;;;;;;;8.48;4.47;;;;;;;;;;4992132;28;20050;-63
2021/07/29 15:20:44;;;;;;;10.32;3.85;;;;;;;;;;4992344;28;20498;-80
2021/07/29 16:09:22;;;;;;;11.10;4.32;;;;;;;;;;4995299;28;20072;-68
2021/07/29 16:11:49;;;;;;;11.45;3.90;;;;;;;;;;4995353;28;20393;-68
2021/07/29 16:14:22;;;;;;;6.30;4.15;;;;;;;;;;4994624;28;20022;-68
2021/07/29 16:16:49;;;;;;;8.07;4.00;;;;;;;;;;4994480;28;20100;-68
2021/07/29 16:19:18;;;;;;;6.95;4.18;;;;;;;;;;4994270;28;20374;-67
2021/07/29 16:21:45;;;;;;;8.45;4.32;;;;;;;;;;4992348;28;20487;-67
2021/07/29 16:24:12;;;;;;;7.40;4.10;;;;;;;;;;4977903;28;20489;-68
2021/07/29 16:26:37;;;;;;;9.18;3.90;;;;;;;;;;4988593;28;20031;-67
2021/07/29 16:29:04;;;;;;;17.50;4.95;;;;;;;;;;4994445;28;20026;-68
2021/07/29 16:31:30;;;;;;;8.55;4.90;;;;;;;;;;4994752;28;20023;-67
2021/07/29 16:33:56;;;;;;;10.07;3.80;;;;;;;;;;4994323;28;20097;-68
2021/07/29 16:36:22;;;;;;;6.07;3.88;;;;;;;;;;4993526;28;20034;-68
2021/07/29 16:38:49;;;;;;;9.35;4.30;;;;;;;;;;4993879;28;20518;-68
2021/07/29 16:41:17;;;;;;;11.27;4.20;;;;;;;;;;4996022;28;20031;-68
2021/07/29 16:43:43;;;;;;;10.30;4.05;;;;;;;;;;4994284;28;20038;-66
2021/07/29 16:46:09;;;;;;;9.77;4.03;;;;;;;;;;4976234;28;20520;-68
2021/07/29 16:48:35;;;;;;;9.25;3.88;;;;;;;;;;4994212;28;20451;-68
2021/07/29 16:51:02;;;;;;;8.30;3.50;;;;;;;;;;4976694;28;20022;-68
2021/07/29 16:53:28;;;;;;;12.20;3.95;;;;;;;;;;4993223;28;20030;-67
2021/07/29 16:55:54;;;;;;;10.07;5.07;;;;;;;;;;4995840;28;20042;-66
2021/07/29 16:58:20;;;;;;;10.07;4.18;;;;;;;;;;4976830;28;20025;-67
2021/07/29 17:00:46;;;;;;;11.30;4.30;;;;;;;;;;4976517;28;20026;-68
2021/07/29 17:03:13;;;;;;;8.18;4.65;;;;;;;;;;4993258;28;20061;-67
2021/07/29 17:05:39;;;;;;;9.45;3.92;;;;;;;;;;4973423;28;20039;-66
2021/07/29 17:08:05;;;;;;;10.35;3.85;;;;;;;;;;4988973;28;20033;-67
2021/07/29 17:10:31;;;;;;;6.95;3.67;;;;;;;;;;4992683;28;20072;-67
2021/07/29 17:12:58;;;;;;;7.78;3.78;;;;;;;;;;4993380;28;20076;-67
2021/07/29 17:15:24;;;;;;;11.02;4.25;;;;;;;;;;4992170;28;20034;-68
2021/07/29 17:17:50;;;;;;;7.03;3.90;;;;;;;;;;4992724;28;20026;-68
2021/07/29 17:20:23;;;;;;;7.72;3.70;;;;;;;;;;4991240;28;20109;-67
2021/07/29 17:22:49;;;;;;;14.45;4.22;;;;;;;;;;4979090;28;20480;-78
2021/07/29 17:25:15;;;;;;;14.07;4.47;;;;;;;;;;4993145;28;20060;-68
2021/07/29 17:27:41;;;;;;;7.85;4.00;;;;;;;;;;4993865;28;20381;-78
2021/07/29 17:30:08;;;;;;;11.27;4.00;;;;;;;;;;4993293;28;20030;-69
2021/07/29 17:32:34;;;;;;;5.72;3.45;;;;;;;;;;4993645;28;20097;-64
2021/07/29 17:35:00;;;;;;;11.40;3.92;;;;;;;;;;4993214;28;20034;-64
2021/07/29 17:37:26;;;;;;;8.50;3.80;;;;;;;;;;4993235;28;20445;-69
2021/07/29 17:39:52;;;;;;;7.55;3.58;;;;;;;;;;4987796;28;20022;-67
2021/07/29 17:42:18;;;;;;;8.32;3.63;;;;;;;;;;4993242;28;20030;-66
2021/07/29 17:44:44;;;;;;;6.03;3.50;;;;;;;;;;4974528;28;20058;-68
2021/07/29 17:47:10;;;;;;;14.02;4.03;;;;;;;;;;4992192;28;20038;-68
2021/07/29 17:49:36;;;;;;;13.05;4.10;;;;;;;;;;4972859;28;20193;-63
2021/07/29 17:52:03;;;;;;;14.25;4.03;;;;;;;;;;4982610;28;20489;-69
2021/07/29 17:54:29;;;;;;;39.67;5.80;;;;;;;;;;4982283;28;20038;-70
2021/07/29 17:56:55;;;;;;;10.52;4.05;;;;;;;;;;4993313;28;20077;-66
2021/07/29 17:59:21;;;;;;;17.80;4.57;;;;;;;;;;4992906;28;20023;-69
2021/07/29 18:01:47;;;;;;;9.15;3.75;;;;;;;;;;4991796;28;20038;-67
2021/07/29 18:04:13;;;;;;;10.90;3.67;;;;;;;;;;4992751;28;20166;-66
2021/07/29 18:06:39;;;;;;;15.85;4.65;;;;;;;;;;4992244;28;20022;-67
2021/07/29 18:09:06;;;;;;;10.77;4.68;;;;;;;;;;4994281;28;20101;-66
2021/07/29 18:11:35;;;;;;;18.95;4.38;;;;;;;;;;4982111;28;20053;-66
2021/07/29 18:14:01;;;;;;;12.13;4.32;;;;;;;;;;4994024;28;20029;-69
2021/07/29 18:16:27;;;;;;;10.98;5.13;;;;;;;;;;4992144;28;20038;-70
2021/07/29 18:18:53;;;;;;;10.18;4.93;;;;;;;;;;4992331;28;20084;-68
2021/07/29 18:21:20;;;;;;;14.27;4.85;;;;;;;;;;4992372;28;20029;-69
2021/07/29 18:23:46;;;;;;;17.77;5.25;;;;;;;;;;4992749;28;20030;-69
2021/07/29 18:26:12;;;;;;;14.65;5.57;;;;;;;;;;4992090;28;20033;-69
2021/07/29 18:28:39;;;;;;;10.82;5.82;;;;;;;;;;4992481;28;20038;-65
2021/07/29 18:31:05;;;;;;;21.13;6.65;;;;;;;;;;4971813;28;20378;-70
2021/07/29 18:33:31;;;;;;;9.48;5.47;;;;;;;;;;4986995;28;20018;-66
2021/07/29 18:36:00;;;;;;;9.35;5.25;;;;;;;;;;4992573;28;20019;-68
2021/07/29 18:38:27;;;;;;;10.52;5.72;;;;;;;;;;4992390;28;20037;-69
2021/07/29 18:40:54;;;;;;;19.20;5.75;;;;;;;;;;4985198;28;20045;-68
2021/07/29 18:43:20;;;;;;;18.77;5.88;;;;;;;;;;4992007;28;20476;-67
2021/07/29 18:45:46;;;;;;;15.57;6.18;;;;;;;;;;4991911;28;20051;-69
2021/07/29 18:48:12;;;;;;;10.77;5.90;;;;;;;;;;4986316;28;20031;-66
2021/07/29 18:50:38;;;;;;;11.52;5.40;;;;;;;;;;4987798;28;20034;-68
2021/07/29 18:53:04;;;;;;;14.73;6.10;;;;;;;;;;4982944;28;20054;-67
2021/07/29 18:55:30;;;;;;;16.45;6.20;;;;;;;;;;4990246;28;20027;-69
2021/07/29 18:57:57;;;;;;;15.13;5.80;;;;;;;;;;4990027;28;20034;-65
2021/07/29 19:00:23;;;;;;;12.27;5.82;;;;;;;;;;4992520;28;20053;-68
2021/07/29 19:02:49;;;;;;;10.45;5.40;;;;;;;;;;4990970;28;20125;-67
2021/07/29 19:05:15;;;;;;;9.82;5.80;;;;;;;;;;4992398;28;20033;-68
2021/07/29 19:07:41;;;;;;;10.55;6.32;;;;;;;;;;4992171;28;20113;-68
2021/07/29 19:10:08;;;;;;;10.68;6.32;;;;;;;;;;4991981;28;20030;-70
2021/07/29 19:12:36;;;;;;;14.25;5.97;;;;;;;;;;4992730;28;20033;-70
2021/07/29 19:15:02;;;;;;;12.38;6.78;;;;;;;;;;4991892;28;20084;-68
2021/07/29 19:17:28;;;;;;;30.55;18.38;;;;;;;;;;4992373;28;20443;-68
2021/07/29 19:19:55;;;;;;;43.95;25.70;;;;;;;;;;4995616;28;20030;-69
2021/07/29 19:22:21;;;;;;;33.75;24.08;;;;;;;;;;4992526;28;20380;-70
2021/07/29 19:24:47;;;;;;;23.60;15.73;;;;;;;;;;4996100;28;20039;-70
2021/07/29 19:27:13;;;;;;;16.42;9.73;;;;;;;;;;4995691;28;20022;-69
2021/07/29 19:29:40;;;;;;;10.32;6.57;;;;;;;;;;4995775;28;20029;-68
2021/07/29 19:32:06;;;;;;;14.50;7.07;;;;;;;;;;4994980;28;20037;-71
2021/07/29 19:34:32;;;;;;;15.68;7.70;;;;;;;;;;4995505;28;20158;-70
2021/07/29 19:36:58;;;;;;;11.27;6.22;;;;;;;;;;4995963;28;20022;-70
2021/07/29 19:39:24;;;;;;;14.35;8.57;;;;;;;;;;4991416;28;20065;-71
2021/07/29 19:41:50;;;;;;;24.30;13.10;;;;;;;;;;4990132;28;20026;-67
2021/07/29 19:44:16;;;;;;;18.48;11.45;;;;;;;;;;4995417;28;20034;-70
2021/07/29 19:46:44;;;;;;;12.60;7.50;;;;;;;;;;4995146;28;20200;-67
2021/07/29 19:49:10;;;;;;;16.80;7.20;;;;;;;;;;4995826;28;20026;-68
2021/07/29 19:51:36;;;;;;;14.85;6.60;;;;;;;;;;4995099;28;20050;-70
2021/07/29 19:54:03;;;;;;;14.35;6.10;;;;;;;;;;4995792;28;20058;-68
2021/07/29 19:56:29;;;;;;;11.15;6.05;;;;;;;;;;4995618;28;20022;-69
2021/07/29 19:58:55;;;;;;;12.35;5.72;;;;;;;;;;4995992;28;20056;-66
2021/07/29 20:01:21;;;;;;;16.23;6.50;;;;;;;;;;4995531;28;20084;-66
2021/07/29 20:03:47;;;;;;;18.02;6.90;;;;;;;;;;4995000;28;20038;-67
2021/07/29 20:06:13;;;;;;;17.88;7.15;;;;;;;;;;4995428;28;20030;-68
2021/07/29 20:08:39;;;;;;;13.65;6.70;;;;;;;;;;4995575;28;20084;-69
2021/07/29 20:11:05;;;;;;;10.15;6.05;;;;;;;;;;4995282;28;20026;-67
2021/07/29 20:13:31;;;;;;;13.65;6.32;;;;;;;;;;4994803;28;20112;-70
2021/07/29 20:15:58;;;;;;;10.50;5.82;;;;;;;;;;4995118;28;20484;-67
2021/07/29 20:18:25;;;;;;;13.25;6.20;;;;;;;;;;4994544;28;20058;-74
2021/07/29 20:20:52;;;;;;;8.80;5.75;;;;;;;;;;4991292;28;20407;-70
2021/07/29 20:23:18;;;;;;;10.40;5.90;;;;;;;;;;4988433;28;20034;-76
2021/07/29 20:25:47;;;;;;;12.30;5.80;;;;;;;;;;4981144;28;20066;-69
2021/07/29 20:28:19;;;;;;;10.75;5.53;;;;;;;;;;4987591;28;20029;-77
2021/07/29 20:30:45;;;;;;;9.55;5.25;;;;;;;;;;4972852;28;20039;-73
2021/07/29 20:33:11;;;;;;;10.45;5.10;;;;;;;;;;4986588;28;20027;-72
2021/07/29 20:35:37;;;;;;;8.73;5.38;;;;;;;;;;4993261;28;20528;-70
2021/07/29 20:38:03;;;;;;;10.70;5.40;;;;;;;;;;4994713;28;20154;-67
2021/07/29 20:40:29;;;;;;;9.77;5.18;;;;;;;;;;4981608;28;20037;-69
2021/07/29 20:42:57;;;;;;;9.45;4.68;;;;;;;;;;4993940;28;20034;-66
2021/07/29 20:45:23;;;;;;;13.45;4.78;;;;;;;;;;4992587;28;20504;-68
2021/07/29 20:47:49;;;;;;;11.02;4.90;;;;;;;;;;4994514;28;20034;-65
2021/07/29 20:50:15;;;;;;;13.43;4.57;;;;;;;;;;4994576;28;20030;-68
2021/07/29 20:52:41;;;;;;;8.88;4.53;;;;;;;;;;4992642;28;20434;-66
2021/07/29 20:55:09;;;;;;;8.65;4.45;;;;;;;;;;4993409;28;20076;-69
2021/07/29 20:57:37;;;;;;;8.98;4.15;;;;;;;;;;4987053;28;20029;-68
2021/07/29 21:00:04;;;;;;;16.17;4.63;;;;;;;;;;4993857;28;20057;-68
2021/07/29 21:02:30;;;;;;;7.50;4.38;;;;;;;;;;4994893;28;20035;-68
2021/07/29 21:04:56;;;;;;;7.10;4.32;;;;;;;;;;4994268;28;20077;-67
2021/07/29 21:07:22;;;;;;;8.13;4.75;;;;;;;;;;4993712;28;20042;-68
2021/07/29 21:09:51;;;;;;;6.88;4.35;;;;;;;;;;4994146;28;20038;-67
2021/07/29 21:12:17;;;;;;;7.57;4.30;;;;;;;;;;5000465;28;20555;-68
2021/07/29 21:14:49;;;;;;;9.10;4.28;;;;;;;;;;4996858;28;20511;-68
2021/07/29 21:17:18;;;;;;;9.85;4.65;;;;;;;;;;4986711;28;20030;-68
2021/07/29 21:19:44;;;;;;;7.97;4.03;;;;;;;;;;4994078;28;20432;-67
2021/07/29 21:22:10;;;;;;;7.70;4.10;;;;;;;;;;4993481;28;20027;-68
2021/07/29 21:24:36;;;;;;;8.15;4.32;;;;;;;;;;4993910;28;20039;-68
2021/07/29 21:27:05;;;;;;;10.77;4.25;;;;;;;;;;4993787;28;20030;-68
2021/07/29 21:29:31;;;;;;;8.70;4.40;;;;;;;;;;4992987;28;20022;-67
2021/07/29 21:31:57;;;;;;;6.45;4.38;;;;;;;;;;4993180;28;20109;-67
2021/07/29 21:34:23;;;;;;;7.47;4.22;;;;;;;;;;4992928;28;20137;-67
2021/07/29 21:36:49;;;;;;;9.52;4.18;;;;;;;;;;4994233;28;20034;-67
2021/07/29 21:39:15;;;;;;;7.47;4.05;;;;;;;;;;4993506;28;20022;-68
2021/07/29 21:41:41;;;;;;;7.07;4.07;;;;;;;;;;4992570;28;20069;-68
2021/07/29 21:44:08;;;;;;;10.18;4.40;;;;;;;;;;4993929;28;20030;-68
2021/07/29 21:46:34;;;;;;;9.55;4.60;;;;;;;;;;4992786;28;20484;-68
2021/07/29 21:49:00;;;;;;;8.95;4.10;;;;;;;;;;4993213;28;20026;-67
2021/07/29 21:51:26;;;;;;;8.93;4.45;;;;;;;;;;4992781;28;20040;-66
2021/07/29 21:53:52;;;;;;;7.00;4.10;;;;;;;;;;4993700;28;20033;-68
2021/07/29 21:56:19;;;;;;;6.53;4.18;;;;;;;;;;4993558;28;20042;-68
2021/07/29 21:58:45;;;;;;;14.30;4.25;;;;;;;;;;4993762;28;20380;-69
2021/07/29 22:01:11;;;;;;;11.02;4.20;;;;;;;;;;4992077;28;20022;-69
2021/07/29 22:03:37;;;;;;;7.80;4.30;;;;;;;;;;4993184;28;20018;-67
2021/07/29 22:06:03;;;;;;;11.10;4.10;;;;;;;;;;4992617;28;20463;-67
2021/07/29 22:08:32;;;;;;;9.40;3.78;;;;;;;;;;4992632;28;20403;-66
2021/07/29 22:10:58;;;;;;;10.93;4.13;;;;;;;;;;4993038;28;20034;-68
2021/07/29 22:13:25;;;;;;;13.90;4.15;;;;;;;;;;4992738;28;20037;-68
2021/07/29 22:15:53;;;;;;;10.80;4.57;;;;;;;;;;4994508;28;20038;-67
2021/07/29 22:18:22;;;;;;;7.60;4.03;;;;;;;;;;4992494;28;20033;-69
2021/07/29 22:20:48;;;;;;;9.75;4.28;;;;;;;;;;4992251;28;20812;-68
2021/07/29 22:23:14;;;;;;;8.93;4.40;;;;;;;;;;4992619;28;20060;-67
2021/07/29 22:25:40;;;;;;;8.43;4.28;;;;;;;;;;4998265;28;20026;-67
2021/07/29 22:28:07;;;;;;;9.88;4.40;;;;;;;;;;4995184;28;20058;-68
2021/07/29 22:30:33;;;;;;;7.82;3.70;;;;;;;;;;4992825;28;20054;-68
2021/07/29 22:32:59;;;;;;;8.07;4.07;;;;;;;;;;4992601;28;20037;-67
2021/07/29 22:35:25;;;;;;;12.63;3.95;;;;;;;;;;4991745;28;20380;-68
2021/07/29 22:37:52;;;;;;;8.23;4.00;;;;;;;;;;4995375;28;20026;-69
2021/07/29 22:40:18;;;;;;;9.05;4.03;;;;;;;;;;4978889;28;20026;-67
2021/07/29 22:42:44;;;;;;;6.18;4.10;;;;;;;;;;4991942;28;20022;-68
2021/07/29 22:45:13;;;;;;;10.02;4.60;;;;;;;;;;4992280;28;20113;-68
2021/07/29 22:47:41;;;;;;;8.65;4.38;;;;;;;;;;4993516;28;20019;-68
2021/07/29 22:50:07;;;;;;;8.02;4.20;;;;;;;;;;4995318;28;20034;-68
2021/07/29 22:52:34;;;;;;;8.10;4.30;;;;;;;;;;4979910;28;20023;-68